»·PEaware :: N525SA KSNA-KBFL

N525SA :: KSNA-KBFL

FLIGHT INFORMATION

Flight Status: Arrived
Operator: Privately registered:
United States
More flights under this callsign
Pilot: Utku A. (15598)
Aircraft: SOCATA TBM-900
(TBM9)
More flights by this aircraft type
Origin: KSNA John Wayne-Orange Co
United States
Destination: KBFL Meadows
United States
More flights between these airports :: More routes between these airports
Route: +MUSEL8 SLI V459 LHS FASTO2
File this flight plan on PilotEdge
Remarks:
Altitude:
(Current/Filed)
16,000ft
Speed:
(Current/Filed)
260kts
Departed: 01-Nov-18 06:34 PM
Arrived: 01-Nov-18 07:23 PM
Distance/Time
Traveled:
120nm/0:49
Distance/Time
To Go:
Arrived

Flight Plot

Page will automatically refresh every two minutes.

Flight plan parsing failed; only flown route is shown


Map Options




Map Legend


Flown Route
Filed Route
Departure Airport
Arrival Airport
Navaid (VOR, NDB)
Fix

Horizontal Profiles

Position Reports

Time Latitude Longitude Heading Altitude Ground
Speed
01-Nov-18 18:20 33.665108 -117.873360 214 59ft 0kts
01-Nov-18 18:21 33.665107 -117.873360 214 59ft 0kts
01-Nov-18 18:22 33.665107 -117.873360 214 59ft 0kts
01-Nov-18 18:23 33.665107 -117.873360 214 59ft 0kts
01-Nov-18 18:24 33.665107 -117.873360 214 59ft 0kts
01-Nov-18 18:25 33.665107 -117.873360 214 59ft 0kts
01-Nov-18 18:26 33.665107 -117.873360 214 59ft 0kts
01-Nov-18 18:27 33.665107 -117.873360 214 59ft 0kts
01-Nov-18 18:28 33.665107 -117.873360 214 59ft 0kts
01-Nov-18 18:29 33.665337 -117.873944 337 59ft 8kts
01-Nov-18 18:30 33.668012 -117.872067 41 59ft 9kts
01-Nov-18 18:31 33.669803 -117.870217 40 59ft 11kts
01-Nov-18 18:32 33.672964 -117.867467 49 59ft 13kts
01-Nov-18 18:33 33.676805 -117.864760 28 59ft 16kts
01-Nov-18 18:34 33.679811 -117.863283 299 59ft 4kts
01-Nov-18 18:35 33.680752 -117.865432 279 59ft 11kts
01-Nov-18 18:36 33.659585 -117.877794 190 1459ft 115kts
01-Nov-18 18:37 33.623974 -117.883294 190 3710ft 140kts
01-Nov-18 18:38 33.586189 -117.889554 192 6138ft 142kts
01-Nov-18 18:39 33.544627 -117.897230 191 8025ft 189kts
01-Nov-18 18:40 33.486298 -117.907959 193 7986ft 221kts
01-Nov-18 18:41 33.462961 -117.967757 261 7983ft 210kts
01-Nov-18 18:42 33.451149 -118.036306 261 7981ft 211kts
01-Nov-18 18:43 33.439444 -118.104235 261 7968ft 194kts
01-Nov-18 18:44 33.428817 -118.162365 261 7993ft 169kts
01-Nov-18 18:45 33.455908 -118.179457 21 8305ft 161kts
01-Nov-18 18:46 33.498014 -118.162700 16 10088ft 160kts
01-Nov-18 18:47 33.539968 -118.146841 19 11958ft 166kts
01-Nov-18 18:48 33.594396 -118.126205 18 11975ft 231kts
01-Nov-18 18:49 33.657726 -118.102305 18 11966ft 244kts
01-Nov-18 18:50 33.722725 -118.077716 18 11971ft 246kts
01-Nov-18 18:51 33.785737 -118.058993 346 12902ft 222kts
01-Nov-18 18:53 33.841440 -118.088343 339 13964ft 221kts
01-Nov-18 18:54 33.896582 -118.119842 339 14785ft 223kts
01-Nov-18 18:55 33.952826 -118.152204 339 15518ft 225kts
01-Nov-18 18:56 34.009309 -118.184768 339 16157ft 226kts
01-Nov-18 18:57 34.066073 -118.217544 339 16711ft 227kts
01-Nov-18 18:58 34.121390 -118.249532 339 17195ft 229kts
01-Nov-18 18:59 34.178520 -118.282764 339 17659ft 229kts
01-Nov-18 19:00 34.234136 -118.314841 339 17913ft 233kts
01-Nov-18 19:01 34.296182 -118.350885 338 18109ft 258kts
01-Nov-18 19:02 34.362136 -118.389278 338 18121ft 266kts
01-Nov-18 19:03 34.428407 -118.427912 338 18134ft 268kts
01-Nov-18 19:04 34.496057 -118.467417 338 18143ft 269kts
01-Nov-18 19:05 34.563679 -118.506959 338 17648ft 276kts
01-Nov-18 19:06 34.632603 -118.547368 338 16091ft 275kts
01-Nov-18 19:07 34.697727 -118.592116 325 15083ft 271kts
01-Nov-18 19:08 34.754808 -118.650039 324 14086ft 261kts
01-Nov-18 19:09 34.807415 -118.703642 324 13083ft 252kts
01-Nov-18 19:10 34.860758 -118.758101 324 12069ft 250kts
01-Nov-18 19:11 34.910917 -118.809441 324 11015ft 226kts
01-Nov-18 19:12 34.959080 -118.857392 338 9487ft 221kts
01-Nov-18 19:13 35.015658 -118.861314 359 8975ft 184kts
01-Nov-18 19:14 35.063384 -118.861371 358 7878ft 179kts
01-Nov-18 19:15 35.114205 -118.861394 358 6474ft 184kts
01-Nov-18 19:16 35.165239 -118.861350 358 5088ft 184kts
01-Nov-18 19:17 35.217266 -118.861425 358 4794ft 190kts
01-Nov-18 19:18 35.270586 -118.862015 349 4738ft 195kts
01-Nov-18 19:19 35.307025 -118.902841 315 3776ft 162kts
01-Nov-18 19:20 35.337879 -118.940417 315 3074ft 137kts
01-Nov-18 19:21 35.358594 -118.965421 315 2485ft 89kts
01-Nov-18 19:22 35.377874 -118.988845 315 2062ft 102kts
01-Nov-18 19:23 35.397285 -119.012033 316 1502ft 93kts
01-Nov-18 19:24 35.415697 -119.034261 315 936ft 92kts
01-Nov-18 19:25 35.432784 -119.054880 315 498ft 69kts
01-Nov-18 19:26 35.438233 -119.059691 86 496ft 9kts
01-Nov-18 19:27 35.435670 -119.056186 135 496ft 8kts
01-Nov-18 19:28 35.433389 -119.053424 135 496ft 11kts
01-Nov-18 19:29 35.431091 -119.050643 136 496ft 12kts
01-Nov-18 19:30 35.428824 -119.047900 135 496ft 8kts
01-Nov-18 19:31 35.428388 -119.045890 308 496ft 7kts
01-Nov-18 19:32 35.429462 -119.046521 133 496ft 0kts
01-Nov-18 19:33 35.429462 -119.046521 133 496ft 0kts
01-Nov-18 19:34 35.429462 -119.046521 133 496ft 0kts
01-Nov-18 19:35 35.429462 -119.046521 133 496ft 0kts
01-Nov-18 19:36 35.429462 -119.046521 133 496ft 0kts
01-Nov-18 19:37 35.429462 -119.046521 133 496ft 0kts
01-Nov-18 19:38 35.429462 -119.046521 133 496ft 0kts
01-Nov-18 19:39 35.429462 -119.046521 133 496ft 0kts
01-Nov-18 19:40 35.429462 -119.046521 133 496ft 0kts

Navigation Log

Ident Type
Flight plan parsing failed, navigation log unavailable